Atlantic Beach, FL (32233)

3:46 PM EDT on September 23, 2014 (GMT -0400)
Reed Island | Change Station
CLOSE
Current Station
Personal Weather Station
Location: Jacksonville, FL
Elevation: 10 ft
Nearby Weather Stations

Elev 10 ft 30.39 °N, 81.52 °W | Updated 7 seconds ago

Light Rain
Light Rain
74.1 °F
Feels Like 74 °F
N
4.9
Wind Variable Wind from NE
Gusts 12.0 mph

Today
High -- | Low -- °F
--% Chance of Precip.
Yesterday
High -- | Low -- °F
Precip. -- in
7:14 AM 7:21 PM
Waning Crescent, 0% visible
Pressure 30.05 in
Visibility 10.0 miles
Clouds Mostly Cloudy 1700 ft
Mostly Cloudy 2700 ft
Overcast 4500 ft
Heat Index 74 °F
Dew Point 69 °F
Humidity 85%
Rainfall 0.76 in
Snow Depth Not available.
UV 3 out of 12
Pollen 5.80 out of 12
Ozone Good
PM2.5 Good
Flu Activity Not available.
METAR KCRG 231853Z 03008KT 10SM -RA BKN017 BKN027 OVC045 24/22 A3005 RMK AO2 RAB04 SLP174 P0001 T02390217

More Conditions Fewer Conditions

Pressure 30.05 in
Visibility 10.0 miles
Clouds Mostly Cloudy 1700 ft
Mostly Cloudy 2700 ft
Overcast 4500 ft
Heat Index 74 °F
Dew Point 69 °F
Humidity 85%
Rainfall 0.76 in
Snow Depth Not available.
UV 3 out of 12
Pollen 5.80 out of 12
Ozone Good
PM2.5 Good
Flu Activity Not available.
METAR KCRG 231853Z 03008KT 10SM -RA BKN017 BKN027 OVC045 24/22 A3005 RMK AO2 RAB04 SLP174 P0001 T02390217

More Conditions Fewer Conditions

10-Day Weather Forecast

Almanac

Astronomy

Sep. 23, 2014 Rise Set
Actual Time 7:14 AM EDT 7:21 PM EDT
Civil Twilight 6:50 AM EDT 7:45 PM EDT
Nautical Twilight 6:23 AM EDT 8:13 PM EDT
Astronomical Twilight 5:54 AM EDT 8:41 PM EDT
Moon 6:38 AM EDT 7:00 PM EDT
Length of Visible Light 12h 54m
Length of Day
12h 06m
Tomorrow will be 1m 49s shorter.
Waning Crescent, 0% of the Moon is Illuminated
Today
Waning Crescent
Sep 24
New
Oct 1
First Quarter
Oct 8
Full
Oct 15
Last Quarter

Today's Extremes

State Highs State Lows

Community

WunderPhotos

Upload Photos

1,755,788 photos uploaded!

WunderBlogs® & News

Nearby

Air Quality

  Air Quality AQ Index Pollutant
Yesterday Good
OZONE
Yesterday Good
PM2.5
Current Good
OZONE
Current Good
PM2.5
Tuesday Good
OZONE
Tuesday Good
PM2.5
Wednesday Good
OZONE
Wednesday Good
PM2.5

Snow Depth

Station Depth Elevation
No new snow has been reported.

Earthquake Activity

City Distance Mag. Time & Date
No recent earthquake activity has been reported nearby.
Minimum magnitude displayed is 2.5.

Coastal Water Temperatures

Place Temperature
Mayport (Bar Pilots Dock), FL 82.0 °F
Fernandina Beach, FL 80.1 °F

Nearby Weather Stations